createdAt,value
2019-02-15T00:02:03.445Z,64.90
2019-02-15T00:04:34.966Z,65.10
2019-02-15T00:07:05.971Z,65.40
2019-02-15T00:09:37.124Z,65.40
2019-02-15T00:12:08.199Z,65.40
2019-02-15T00:14:49.591Z,65.40
2019-02-15T00:17:38.636Z,65.20
2019-02-15T00:20:15.095Z,65.20
2019-02-15T00:22:48.637Z,65.10
2019-02-15T00:25:19.690Z,65.20
2019-02-15T00:27:50.655Z,64.60
2019-02-15T00:30:21.695Z,64.60
2019-02-15T00:32:52.612Z,64.70
2019-02-15T00:35:23.779Z,64.80
2019-02-15T00:37:54.914Z,64.90
2019-02-15T00:40:25.963Z,65.10
2019-02-15T00:42:56.986Z,65.10
2019-02-15T00:45:30.691Z,65.00
2019-02-15T00:48:12.056Z,65.10
2019-02-15T00:51:17.298Z,65.30
2019-02-15T00:54:10.480Z,65.30
2019-02-15T00:57:07.530Z,65.50
2019-02-15T00:59:49.861Z,65.50
2019-02-15T01:02:29.405Z,65.70
2019-02-15T01:05:31.583Z,65.70
2019-02-15T01:08:21.893Z,65.60
2019-02-15T01:11:14.497Z,65.80
2019-02-15T01:13:45.649Z,65.90
2019-02-15T01:16:17.266Z,66.30
2019-02-15T01:18:48.666Z,66.50
2019-02-15T01:21:19.812Z,66.30
2019-02-15T01:23:50.914Z,66.20
2019-02-15T01:26:39.864Z,65.90
2019-02-15T01:29:28.555Z,65.70
2019-02-15T01:32:18.328Z,66.00
2019-02-15T01:35:06.669Z,66.10
2019-02-15T01:37:48.469Z,66.50
2019-02-15T01:40:37.303Z,66.80
2019-02-15T01:43:28.947Z,67.20
2019-02-15T01:46:13.158Z,67.40
2019-02-15T01:48:47.189Z,67.50
2019-02-15T01:51:18.242Z,67.70
2019-02-15T01:53:49.226Z,67.90
2019-02-15T01:56:20.293Z,68.10
2019-02-15T01:58:51.199Z,68.20
2019-02-15T02:01:25.010Z,67.90
2019-02-15T02:03:56.092Z,67.80
2019-02-15T02:06:29.386Z,67.90
2019-02-15T02:09:02.940Z,67.80
2019-02-15T02:11:35.721Z,67.80
2019-02-15T02:14:07.200Z,67.80
2019-02-15T02:16:38.262Z,68.00
2019-02-15T02:19:09.167Z,68.30
2019-02-15T02:21:40.164Z,68.30
2019-02-15T02:24:11.060Z,68.50
2019-02-15T02:26:42.053Z,68.90
2019-02-15T02:29:14.003Z,69.10
2019-02-15T02:31:45.121Z,69.20
2019-02-15T02:34:16.236Z,69.20
2019-02-15T02:36:51.619Z,69.40
2019-02-15T02:39:22.694Z,69.30
2019-02-15T02:41:59.279Z,68.90
2019-02-15T02:44:30.353Z,68.70
2019-02-15T02:47:01.769Z,68.80
2019-02-15T02:49:32.793Z,69.00
2019-02-15T02:52:04.868Z,69.30
2019-02-15T02:54:35.896Z,69.40
2019-02-15T02:57:07.991Z,69.50
2019-02-15T02:59:38.977Z,69.60
2019-02-15T03:02:09.974Z,69.60
2019-02-15T03:04:41.049Z,69.70
2019-02-15T03:07:12.077Z,69.80
2019-02-15T03:09:44.822Z,70.00
2019-02-15T03:12:16.083Z,70.10
2019-02-15T03:14:47.346Z,70.00
2019-02-15T03:17:18.550Z,69.70
2019-02-15T03:19:49.468Z,69.40
2019-02-15T03:22:22.165Z,69.10
2019-02-15T03:24:53.065Z,69.30
2019-02-15T03:27:24.276Z,69.50
2019-02-15T03:29:56.435Z,69.50
2019-02-15T03:32:27.561Z,69.50
2019-02-15T03:34:58.551Z,69.60
2019-02-15T03:37:46.948Z,69.60
2019-02-15T03:40:21.947Z,69.80
2019-02-15T03:42:53.133Z,70.00
2019-02-15T03:45:24.017Z,70.10
2019-02-15T03:47:55.124Z,69.90
2019-02-15T03:50:26.080Z,69.90
2019-02-15T03:52:57.160Z,69.70
2019-02-15T03:55:28.173Z,69.70
2019-02-15T03:57:59.741Z,69.70
2019-02-15T04:00:31.380Z,69.90
2019-02-15T04:03:03.224Z,69.80
2019-02-15T04:05:34.849Z,70.00
2019-02-15T04:08:06.599Z,70.10
2019-02-15T04:10:37.721Z,70.10
2019-02-15T04:13:08.746Z,70.20
2019-02-15T04:15:39.872Z,70.30
2019-02-15T04:18:11.410Z,70.30
2019-02-15T04:20:43.037Z,70.30
2019-02-15T04:23:14.849Z,70.20
2019-02-15T04:25:45.839Z,70.20
2019-02-15T04:28:17.190Z,70.30
2019-02-15T04:30:54.420Z,70.50
2019-02-15T04:36:16.839Z,70.70
2019-02-15T04:38:47.671Z,70.80
2019-02-15T04:41:18.580Z,70.80
2019-02-15T04:43:49.445Z,70.90
2019-02-15T04:46:20.440Z,70.80
2019-02-15T04:48:51.366Z,70.70
2019-02-15T04:54:13.556Z,70.60
2019-02-15T04:56:46.759Z,70.90
2019-02-15T04:59:17.677Z,70.40
2019-02-15T05:01:48.456Z,71.00
2019-02-15T05:04:19.246Z,71.20
2019-02-15T05:06:59.708Z,71.20
2019-02-15T05:09:34.058Z,71.10
2019-02-15T05:12:05.437Z,71.10
2019-02-15T05:14:36.458Z,70.90
2019-02-15T05:17:07.546Z,71.10
2019-02-15T05:19:38.605Z,71.30
2019-02-15T05:22:09.806Z,71.40
2019-02-15T05:24:40.855Z,71.50
2019-02-15T05:27:11.975Z,71.70
2019-02-15T05:29:42.895Z,71.80
2019-02-15T05:32:13.996Z,71.60
2019-02-15T05:34:46.145Z,71.30
2019-02-15T05:37:17.338Z,72.10
2019-02-15T05:39:48.453Z,71.30
2019-02-15T05:42:19.398Z,71.30
2019-02-15T05:44:50.614Z,71.40
2019-02-15T05:47:21.579Z,71.30
2019-02-15T05:49:52.535Z,71.30
2019-02-15T05:52:23.565Z,71.30
2019-02-15T05:54:54.528Z,71.20
2019-02-15T05:57:25.485Z,71.30
2019-02-15T05:59:56.544Z,71.40
2019-02-15T06:02:27.519Z,71.40
2019-02-15T06:04:58.456Z,71.30
2019-02-15T06:07:29.390Z,71.30
2019-02-15T06:10:00.338Z,71.20
2019-02-15T06:12:31.386Z,71.20
2019-02-15T06:15:02.500Z,71.30
2019-02-15T06:17:33.620Z,71.30
2019-02-15T06:20:04.783Z,71.30
2019-02-15T06:22:35.980Z,71.30
2019-02-15T06:25:07.154Z,71.50
2019-02-15T06:27:38.243Z,71.40
2019-02-15T06:30:09.717Z,71.50
2019-02-15T06:32:40.740Z,71.60
2019-02-15T06:35:11.737Z,71.70
2019-02-15T06:37:42.811Z,71.70
2019-02-15T06:40:14.061Z,71.80
2019-02-15T06:42:45.089Z,71.90
2019-02-15T06:45:24.233Z,72.00
2019-02-15T06:47:48.866Z,72.10
2019-02-15T06:50:19.899Z,72.10
2019-02-15T06:52:50.970Z,72.10
2019-02-15T06:55:22.030Z,72.00
2019-02-15T06:57:53.202Z,72.10
2019-02-15T07:00:42.921Z,72.20
2019-02-15T07:03:24.380Z,72.10
2019-02-15T07:05:55.499Z,72.10
2019-02-15T07:08:26.549Z,72.20
2019-02-15T07:10:57.580Z,72.20
2019-02-15T07:13:28.709Z,72.10
2019-02-15T07:15:59.788Z,72.40
2019-02-15T07:18:30.844Z,72.30
2019-02-15T07:21:04.201Z,72.30
2019-02-15T07:23:35.906Z,72.20
2019-02-15T07:26:07.427Z,72.20
2019-02-15T07:28:38.473Z,72.30
2019-02-15T07:31:09.611Z,72.20
2019-02-15T07:33:41.139Z,72.10
2019-02-15T07:36:12.175Z,72.10
2019-02-15T07:38:43.728Z,72.30
2019-02-15T07:41:14.695Z,72.30
2019-02-15T07:43:45.706Z,72.10
2019-02-15T07:46:16.667Z,72.10
2019-02-15T07:48:47.649Z,72.30
2019-02-15T07:51:19.235Z,72.20
2019-02-15T07:53:50.872Z,72.20
2019-02-15T07:56:21.989Z,72.20
2019-02-15T07:58:53.838Z,72.30
2019-02-15T08:01:25.617Z,72.20
2019-02-15T08:03:58.439Z,72.20
2019-02-15T08:06:30.117Z,72.20
2019-02-15T08:09:01.815Z,72.00
2019-02-15T08:11:34.817Z,71.80
2019-02-15T08:14:14.649Z,72.20
2019-02-15T08:16:40.166Z,72.30
2019-02-15T08:19:12.570Z,72.30
2019-02-15T08:21:44.362Z,72.30
2019-02-15T08:24:16.092Z,72.00
2019-02-15T08:26:47.781Z,72.30
2019-02-15T08:29:19.120Z,72.20
2019-02-15T08:31:50.832Z,72.30
2019-02-15T08:34:22.615Z,72.00
2019-02-15T08:36:54.316Z,71.60
2019-02-15T08:39:26.003Z,71.60
2019-02-15T08:42:03.830Z,71.80
2019-02-15T08:44:30.949Z,71.90
2019-02-15T08:47:02.715Z,71.70
2019-02-15T08:49:34.461Z,71.60
2019-02-15T08:52:06.280Z,71.60
2019-02-15T08:54:37.877Z,71.60
2019-02-15T08:57:09.406Z,71.60
2019-02-15T08:59:41.092Z,71.40
2019-02-15T09:02:19.711Z,71.20
2019-02-15T09:04:51.227Z,71.50
2019-02-15T09:07:23.076Z,71.50
2019-02-15T09:09:55.117Z,71.50
2019-02-15T09:12:26.677Z,71.50
2019-02-15T09:14:58.497Z,71.70
2019-02-15T09:17:29.589Z,71.60
2019-02-15T09:20:01.527Z,71.60
2019-02-15T09:22:33.280Z,71.40
2019-02-15T09:25:05.343Z,71.10
2019-02-15T09:27:41.735Z,71.00
2019-02-15T09:30:15.082Z,71.00
2019-02-15T09:32:46.720Z,71.30
2019-02-15T09:35:18.481Z,71.30
2019-02-15T09:37:50.644Z,71.00
2019-02-15T09:40:21.827Z,70.90
2019-02-15T09:42:53.508Z,70.80
2019-02-15T09:45:25.280Z,70.90
2019-02-15T09:47:56.374Z,70.70
2019-02-15T09:50:27.953Z,70.80
2019-02-15T09:53:00.040Z,71.40
2019-02-15T09:55:32.965Z,71.00
2019-02-15T09:58:05.204Z,71.60
2019-02-15T10:00:36.910Z,71.20
2019-02-15T10:03:08.430Z,71.10
2019-02-15T10:05:40.585Z,70.70
2019-02-15T10:08:11.802Z,70.70
2019-02-15T10:10:43.934Z,70.40
2019-02-15T10:13:15.593Z,70.70
2019-02-15T10:15:47.247Z,70.60
2019-02-15T10:18:19.363Z,70.70
2019-02-15T10:20:51.145Z,70.90
2019-02-15T10:23:22.928Z,71.10
2019-02-15T10:25:54.733Z,71.30
2019-02-15T10:28:26.362Z,71.20
2019-02-15T10:30:58.029Z,71.20
2019-02-15T10:33:29.817Z,70.90
2019-02-15T10:36:01.090Z,70.70
2019-02-15T10:38:32.735Z,70.40
2019-02-15T10:41:04.600Z,71.20
2019-02-15T10:43:36.134Z,70.40
2019-02-15T10:46:07.818Z,70.20
2019-02-15T10:48:40.651Z,70.30
2019-02-15T10:51:12.698Z,70.30
2019-02-15T10:53:45.387Z,70.20
2019-02-15T10:56:16.459Z,70.10
2019-02-15T10:58:48.064Z,70.30
2019-02-15T11:01:19.868Z,70.20
2019-02-15T11:03:50.905Z,70.60
2019-02-15T11:06:22.527Z,71.00
2019-02-15T11:08:53.576Z,71.30
2019-02-15T11:11:25.282Z,71.30
2019-02-15T11:13:57.017Z,71.00
2019-02-15T11:16:29.296Z,70.60
2019-02-15T11:19:00.859Z,70.80
2019-02-15T11:21:31.976Z,70.60
2019-02-15T11:24:03.684Z,71.00
2019-02-15T11:26:35.479Z,71.10
2019-02-15T11:29:06.824Z,71.30
2019-02-15T11:31:38.686Z,71.30
2019-02-15T11:34:10.318Z,71.30
2019-02-15T11:36:42.590Z,71.50
2019-02-15T11:39:13.863Z,71.50
2019-02-15T11:41:45.686Z,71.80
2019-02-15T11:44:17.413Z,71.90
2019-02-15T11:46:56.570Z,72.10
2019-02-15T11:49:22.361Z,72.30
2019-02-15T11:51:54.125Z,72.10
2019-02-15T11:54:26.394Z,72.30
2019-02-15T11:56:58.389Z,72.40
2019-02-15T11:59:32.492Z,72.50
2019-02-15T12:02:06.316Z,72.50
2019-02-15T12:04:37.329Z,72.20
2019-02-15T12:07:09.210Z,72.10
2019-02-15T12:09:40.887Z,72.10
2019-02-15T12:12:12.665Z,72.10
2019-02-15T12:14:44.364Z,72.10
2019-02-15T12:17:16.314Z,72.10
2019-02-15T12:19:47.488Z,72.40
2019-02-15T12:22:18.599Z,72.60
2019-02-15T12:24:50.320Z,72.50
2019-02-15T12:27:22.517Z,72.00
2019-02-15T12:29:54.094Z,71.90
2019-02-15T12:32:25.978Z,72.00
2019-02-15T12:34:57.791Z,72.10
2019-02-15T12:37:29.468Z,72.10
2019-02-15T12:40:00.936Z,72.10
2019-02-15T12:42:33.236Z,72.20
2019-02-15T12:45:05.158Z,72.10
2019-02-15T12:47:36.476Z,72.30
2019-02-15T12:50:10.647Z,72.60
2019-02-15T12:52:42.425Z,72.20
2019-02-15T12:55:15.263Z,72.00
2019-02-15T12:57:47.080Z,72.00
2019-02-15T13:00:19.905Z,71.90
2019-02-15T13:02:52.319Z,72.00
2019-02-15T13:05:24.226Z,71.90
2019-02-15T13:07:56.180Z,72.10
2019-02-15T13:10:28.633Z,72.10
2019-02-15T13:13:00.221Z,72.20
2019-02-15T13:15:31.379Z,72.60
2019-02-15T13:18:03.088Z,72.50
2019-02-15T13:20:34.921Z,72.60
2019-02-15T13:23:06.840Z,72.70
2019-02-15T13:25:38.190Z,72.70
2019-02-15T13:28:09.849Z,72.60
2019-02-15T13:30:41.753Z,72.40
2019-02-15T13:33:13.495Z,72.20
2019-02-15T13:35:45.264Z,72.30
2019-02-15T13:38:16.897Z,72.20
2019-02-15T13:40:48.730Z,71.90
2019-02-15T13:43:19.837Z,72.30
2019-02-15T13:45:50.803Z,72.70
2019-02-15T13:48:21.807Z,72.60
2019-02-15T13:50:53.391Z,72.60
2019-02-15T13:53:25.229Z,72.50
2019-02-15T13:55:57.015Z,72.50
2019-02-15T13:58:29.038Z,72.70
2019-02-15T14:01:01.174Z,72.80
2019-02-15T14:03:34.178Z,73.10
2019-02-15T14:06:06.082Z,73.00
2019-02-15T14:08:38.006Z,72.80
2019-02-15T14:11:09.815Z,72.80
2019-02-15T14:13:41.562Z,73.00
2019-02-15T14:16:13.293Z,73.10
2019-02-15T14:18:44.472Z,73.10
2019-02-15T14:21:15.970Z,72.70
2019-02-15T14:23:47.635Z,72.80
2019-02-15T14:26:19.202Z,73.00
2019-02-15T14:28:50.885Z,73.10
2019-02-15T14:31:22.403Z,73.10
2019-02-15T14:33:54.154Z,73.30
2019-02-15T14:36:25.671Z,73.20
2019-02-15T14:38:57.281Z,73.40
2019-02-15T14:41:29.011Z,73.40
2019-02-15T14:44:00.101Z,73.10
2019-02-15T14:46:31.691Z,73.20
2019-02-15T14:49:02.964Z,73.40
2019-02-15T14:51:33.900Z,73.50
2019-02-15T14:54:05.025Z,73.90
2019-02-15T14:56:36.255Z,74.20
2019-02-15T14:59:07.312Z,74.50
2019-02-15T15:01:38.204Z,74.00
2019-02-15T15:04:09.463Z,73.90
2019-02-15T15:06:41.119Z,73.80
2019-02-15T15:09:12.989Z,73.70
2019-02-15T15:11:44.729Z,73.50
2019-02-15T15:14:16.547Z,73.70
2019-02-15T15:16:47.636Z,74.10
2019-02-15T15:19:19.170Z,74.10
2019-02-15T15:21:50.835Z,73.90
2019-02-15T15:24:22.705Z,73.60
2019-02-15T15:26:54.325Z,73.40
2019-02-15T15:29:25.377Z,73.70
2019-02-15T15:31:56.758Z,74.10
2019-02-15T15:34:27.900Z,74.20
2019-02-15T15:37:01.125Z,74.10
2019-02-15T15:39:33.967Z,73.90
2019-02-15T15:42:05.740Z,73.60
2019-02-15T15:44:37.694Z,73.60
2019-02-15T15:47:09.357Z,73.80
2019-02-15T15:49:40.430Z,73.80
2019-02-15T15:52:11.767Z,73.60
2019-02-15T15:54:43.239Z,73.90
2019-02-15T15:57:14.470Z,73.90
2019-02-15T15:59:45.978Z,74.40
2019-02-15T16:02:18.492Z,74.40
2019-02-15T16:04:50.424Z,74.30
2019-02-15T16:07:22.110Z,74.50
2019-02-15T16:09:54.070Z,74.70
2019-02-15T16:12:25.847Z,74.80
2019-02-15T16:14:57.514Z,74.70
2019-02-15T16:17:30.708Z,74.80
2019-02-15T16:20:02.695Z,74.90
2019-02-15T16:22:36.266Z,74.90
2019-02-15T16:25:12.773Z,74.80
2019-02-15T16:27:44.426Z,74.80
2019-02-15T16:30:16.493Z,75.20
2019-02-15T16:32:48.148Z,75.40
2019-02-15T16:35:20.242Z,75.70
2019-02-15T16:37:52.546Z,75.60
2019-02-15T16:40:24.353Z,75.50
2019-02-15T16:42:58.281Z,75.80
2019-02-15T16:45:29.446Z,75.70
2019-02-15T16:48:03.446Z,75.70
2019-02-15T16:50:35.345Z,75.90
2019-02-15T16:53:08.908Z,75.80
2019-02-15T16:55:40.154Z,75.70
2019-02-15T16:58:14.633Z,75.30
2019-02-15T17:00:46.568Z,75.60
2019-02-15T17:03:17.945Z,75.60
2019-02-15T17:05:49.705Z,75.10
2019-02-15T17:08:21.672Z,75.00
2019-02-15T17:10:53.642Z,74.80
2019-02-15T17:13:25.477Z,74.50
2019-02-15T17:16:00.832Z,74.70
2019-02-15T17:18:35.001Z,74.40
2019-02-15T17:21:06.478Z,74.20
2019-02-15T17:23:38.129Z,74.30
2019-02-15T17:26:09.999Z,74.30
2019-02-15T17:28:41.861Z,74.40
2019-02-15T17:31:13.317Z,74.10
2019-02-15T17:33:47.410Z,74.10
2019-02-15T17:36:20.963Z,73.80
2019-02-15T17:38:52.196Z,73.90
2019-02-15T17:41:23.630Z,74.00
2019-02-15T17:43:54.880Z,73.80
2019-02-15T17:46:25.967Z,73.90
2019-02-15T17:49:00.852Z,73.80
2019-02-15T17:51:30.461Z,73.40
2019-02-15T17:54:04.878Z,73.40
2019-02-15T17:56:37.402Z,73.00
2019-02-15T17:59:08.785Z,73.10
2019-02-15T18:01:39.927Z,73.00
2019-02-15T18:04:11.634Z,72.10
2019-02-15T18:06:43.481Z,72.50
2019-02-15T18:09:15.336Z,73.30
2019-02-15T18:11:46.677Z,72.80
2019-02-15T18:14:18.195Z,72.70
2019-02-15T18:16:50.053Z,72.70
2019-02-15T18:19:25.761Z,72.50
2019-02-15T18:21:57.012Z,72.40
2019-02-15T18:24:28.608Z,72.00
2019-02-15T18:26:59.895Z,72.10
2019-02-15T18:29:32.802Z,72.20
2019-02-15T18:32:04.736Z,72.10
2019-02-15T18:34:36.262Z,72.10
2019-02-15T18:37:07.355Z,72.10
2019-02-15T18:39:41.777Z,72.80
2019-02-15T18:42:13.069Z,72.00
2019-02-15T18:44:45.730Z,72.00
2019-02-15T18:47:18.252Z,72.00
2019-02-15T18:49:56.273Z,71.90
2019-02-15T18:52:28.066Z,71.60
2019-02-15T18:54:59.124Z,71.70
2019-02-15T18:57:33.722Z,71.80
2019-02-15T19:03:16.395Z,71.30
2019-02-15T19:05:47.762Z,70.80
2019-02-15T19:08:19.546Z,70.80
2019-02-15T19:10:54.203Z,70.70
2019-02-15T19:13:27.446Z,70.60
2019-02-15T19:16:07.846Z,70.20
2019-02-15T19:18:39.245Z,69.80
2019-02-15T19:21:10.917Z,69.50
2019-02-15T19:23:44.620Z,69.20
2019-02-15T19:26:17.402Z,68.90
2019-02-15T19:28:57.803Z,68.70
2019-02-15T19:31:52.706Z,68.60
2019-02-15T19:34:27.902Z,69.20
2019-02-15T19:36:59.619Z,68.10
2019-02-15T19:39:31.206Z,67.60
2019-02-15T19:42:08.578Z,67.20
2019-02-15T19:44:39.977Z,66.70
2019-02-15T19:47:12.780Z,66.40
2019-02-15T19:49:47.284Z,66.20
2019-02-15T19:52:18.382Z,66.00
2019-02-15T19:54:50.222Z,65.90
2019-02-15T19:57:21.352Z,65.90
2019-02-15T19:59:54.202Z,65.70
2019-02-15T20:02:25.904Z,65.50
2019-02-15T20:04:57.338Z,65.20
2019-02-15T20:07:32.985Z,64.80
2019-02-15T20:10:04.734Z,64.80
2019-02-15T20:12:36.569Z,64.40
2019-02-15T20:15:11.135Z,64.30
2019-02-15T20:17:43.096Z,64.20
2019-02-15T20:20:14.963Z,64.20
2019-02-15T20:22:46.691Z,64.30
2019-02-15T20:25:18.795Z,64.50
2019-02-15T20:27:51.626Z,64.50
2019-02-15T20:30:23.561Z,64.20
2019-02-15T20:32:55.114Z,63.80
2019-02-15T20:35:26.840Z,63.80
2019-02-15T20:37:58.700Z,63.90
2019-02-15T20:40:30.542Z,63.90
2019-02-15T20:43:02.288Z,63.80
2019-02-15T20:45:33.929Z,63.80
2019-02-15T20:48:11.197Z,63.60
2019-02-15T20:50:38.738Z,63.60
2019-02-15T20:53:09.796Z,63.50
2019-02-15T20:55:41.056Z,63.10
2019-02-15T20:58:12.211Z,63.00
2019-02-15T21:00:43.950Z,63.00
2019-02-15T21:03:15.636Z,63.10
2019-02-15T21:05:46.705Z,62.70
2019-02-15T21:08:17.748Z,62.10
2019-02-15T21:10:55.240Z,61.90
2019-02-15T21:13:21.572Z,61.60
2019-02-15T21:15:52.901Z,61.20
2019-02-15T21:18:23.866Z,61.10
2019-02-15T21:20:55.485Z,60.90
2019-02-15T21:23:27.372Z,60.90
2019-02-15T21:25:58.634Z,60.80
2019-02-15T21:28:29.622Z,60.60
2019-02-15T21:31:00.917Z,60.30
2019-02-15T21:33:32.104Z,60.20
2019-02-15T21:36:03.317Z,59.80
2019-02-15T21:38:34.736Z,59.70
2019-02-15T21:41:07.106Z,59.50
2019-02-15T21:43:38.211Z,59.50
2019-02-15T21:46:09.521Z,59.30
2019-02-15T21:48:40.622Z,59.20
2019-02-15T21:51:12.001Z,59.20
2019-02-15T21:53:43.176Z,58.90
2019-02-15T21:56:14.248Z,59.00
2019-02-15T21:58:45.347Z,58.40
2019-02-15T22:01:16.536Z,58.40
2019-02-15T22:03:47.965Z,58.30
2019-02-15T22:06:19.090Z,58.40
2019-02-15T22:08:50.369Z,58.00
2019-02-15T22:11:21.564Z,58.10
2019-02-15T22:13:52.508Z,58.30
2019-02-15T22:16:23.558Z,58.20
2019-02-15T22:18:54.563Z,58.10
2019-02-15T22:21:25.617Z,58.10
2019-02-15T22:23:57.382Z,58.10
2019-02-15T22:26:28.753Z,57.80
2019-02-15T22:28:59.866Z,57.80
2019-02-15T22:31:31.683Z,57.70
2019-02-15T22:34:02.867Z,57.60
2019-02-15T22:36:33.972Z,57.40
2019-02-15T22:39:05.904Z,57.30
2019-02-15T22:41:37.903Z,57.20
2019-02-15T22:44:08.804Z,57.00
2019-02-15T22:46:39.754Z,57.00
2019-02-15T22:49:13.797Z,57.10
2019-02-15T22:51:44.782Z,57.10
2019-02-15T22:54:15.698Z,57.20
2019-02-15T22:56:46.714Z,57.30
2019-02-15T22:59:20.998Z,57.30
2019-02-15T23:01:53.512Z,57.00
2019-02-15T23:04:24.931Z,56.90
2019-02-15T23:06:56.058Z,57.10
2019-02-15T23:09:27.021Z,57.30
2019-02-15T23:11:58.218Z,57.40
2019-02-15T23:14:29.443Z,57.50
2019-02-15T23:17:03.433Z,57.60
2019-02-15T23:19:34.533Z,57.60
2019-02-15T23:22:06.231Z,57.60
2019-02-15T23:24:40.202Z,57.50
2019-02-15T23:27:13.404Z,57.70
2019-02-15T23:29:44.441Z,57.60
2019-02-15T23:32:15.459Z,57.50
2019-02-15T23:34:46.608Z,57.80
2019-02-15T23:37:17.736Z,57.70
2019-02-15T23:39:48.767Z,57.90
2019-02-15T23:42:20.489Z,57.90
2019-02-15T23:44:52.281Z,57.90
2019-02-15T23:47:23.619Z,57.60
2019-02-15T23:49:55.704Z,57.60
2019-02-15T23:52:27.407Z,57.80
2019-02-15T23:54:58.587Z,57.80
2019-02-15T23:57:29.602Z,58.00
